createdAt,value
2023-08-20T00:01:26.487Z,24.26
2023-08-20T00:06:34.868Z,24.20
2023-08-20T00:09:01.278Z,24.16
2023-08-20T00:11:27.986Z,24.16
2023-08-20T00:14:19.668Z,24.13
2023-08-20T00:16:55.026Z,23.90
2023-08-20T00:19:29.835Z,23.93
2023-08-20T00:24:58.715Z,23.90
2023-08-20T00:27:31.731Z,23.80
2023-08-20T00:30:06.860Z,23.76
2023-08-20T00:33:05.739Z,23.60
2023-08-20T00:35:35.359Z,23.62
2023-08-20T00:38:20.902Z,23.64
2023-08-20T00:41:16.951Z,23.60
2023-08-20T00:43:58.471Z,23.48
2023-08-20T00:46:33.501Z,23.55
2023-08-20T00:49:03.043Z,23.52
2023-08-20T00:51:49.753Z,23.68
2023-08-20T00:57:18.615Z,23.55
2023-08-20T01:00:11.903Z,23.55
2023-08-20T01:03:18.914Z,23.69
2023-08-20T01:06:14.327Z,23.65
2023-08-20T01:08:52.032Z,23.49
2023-08-20T01:11:42.193Z,23.55
2023-08-20T01:14:20.359Z,23.40
2023-08-20T01:16:53.627Z,23.35
2023-08-20T01:19:22.049Z,23.43
2023-08-20T01:22:06.477Z,23.37
2023-08-20T01:24:56.085Z,23.33
2023-08-20T01:27:49.517Z,23.28
2023-08-20T01:30:16.301Z,23.25
2023-08-20T01:32:44.059Z,23.22
2023-08-20T01:35:17.140Z,23.20
2023-08-20T01:37:45.257Z,23.10
2023-08-20T01:40:13.146Z,23.08
2023-08-20T01:42:42.274Z,23.07
2023-08-20T01:45:10.352Z,22.97
2023-08-20T01:47:38.162Z,22.98
2023-08-20T01:50:07.638Z,22.94
2023-08-20T01:52:35.357Z,22.92
2023-08-20T01:55:03.712Z,22.86
2023-08-20T01:57:31.888Z,22.80
2023-08-20T02:00:00.057Z,22.79
2023-08-20T02:02:27.070Z,22.80
2023-08-20T02:05:08.067Z,22.66
2023-08-20T02:07:55.127Z,22.62
2023-08-20T02:10:29.635Z,22.59
2023-08-20T02:12:56.229Z,22.41
2023-08-20T02:15:27.540Z,22.54
2023-08-20T02:17:58.620Z,22.39
2023-08-20T02:20:27.927Z,22.43
2023-08-20T02:23:17.014Z,22.44
2023-08-20T02:28:46.299Z,22.08
2023-08-20T02:31:22.722Z,22.20
2023-08-20T02:33:56.668Z,22.15
2023-08-20T02:36:33.253Z,22.08
2023-08-20T02:39:05.336Z,21.94
2023-08-20T02:41:34.962Z,21.93
2023-08-20T02:44:04.322Z,21.88
2023-08-20T02:46:30.842Z,22.03
2023-08-20T02:48:57.372Z,22.06
2023-08-20T02:51:23.702Z,22.05
2023-08-20T02:53:50.353Z,22.07
2023-08-20T02:56:16.734Z,22.04
2023-08-20T02:58:43.116Z,22.01
2023-08-20T03:01:19.324Z,22.07
2023-08-20T03:03:45.719Z,22.06
2023-08-20T03:06:12.031Z,22.08
2023-08-20T03:08:38.428Z,22.08
2023-08-20T03:11:04.768Z,22.07
2023-08-20T03:13:31.152Z,22.09
2023-08-20T03:15:57.522Z,22.09
2023-08-20T03:18:24.021Z,22.13
2023-08-20T03:20:50.400Z,22.12
2023-08-20T03:23:16.739Z,22.10
2023-08-20T03:25:43.094Z,22.06
2023-08-20T03:28:09.626Z,22.04
2023-08-20T03:30:37.409Z,22.01
2023-08-20T03:35:44.203Z,21.78
2023-08-20T03:38:27.114Z,21.87
2023-08-20T03:40:55.709Z,21.78
2023-08-20T03:43:38.259Z,21.77
2023-08-20T03:46:07.854Z,21.62
2023-08-20T03:48:37.228Z,21.67
2023-08-20T03:51:17.252Z,21.62
2023-08-20T03:56:56.169Z,21.55
2023-08-20T03:59:31.436Z,21.58
2023-08-20T04:02:02.506Z,21.60
2023-08-20T04:04:29.141Z,21.48
2023-08-20T04:06:55.870Z,21.54
2023-08-20T04:09:22.656Z,21.50
2023-08-20T04:11:49.127Z,21.49
2023-08-20T04:14:15.469Z,21.47
2023-08-20T04:16:42.919Z,21.43
2023-08-20T04:19:09.392Z,21.42
2023-08-20T04:21:35.719Z,21.42
2023-08-20T04:24:02.058Z,21.38
2023-08-20T04:26:28.447Z,21.36
2023-08-20T04:28:54.802Z,21.39
2023-08-20T04:31:21.187Z,21.38
2023-08-20T04:33:47.574Z,21.38
2023-08-20T04:36:13.903Z,21.39
2023-08-20T04:38:40.222Z,21.45
2023-08-20T04:41:06.558Z,21.46
2023-08-20T04:43:33.028Z,21.52
2023-08-20T04:45:59.378Z,21.55
2023-08-20T04:48:25.741Z,21.62
2023-08-20T04:50:52.084Z,21.65
2023-08-20T04:53:18.740Z,21.73
2023-08-20T04:55:45.082Z,21.76
2023-08-20T04:58:11.419Z,21.77
2023-08-20T05:00:37.783Z,21.80
2023-08-20T05:03:04.463Z,21.85
2023-08-20T05:05:30.845Z,21.87
2023-08-20T05:07:57.405Z,21.97
2023-08-20T05:10:23.766Z,22.03
2023-08-20T05:12:50.112Z,22.03
2023-08-20T05:15:16.629Z,22.06
2023-08-20T05:17:42.999Z,22.05
2023-08-20T05:20:10.796Z,22.04
2023-08-20T05:22:37.341Z,22.02
2023-08-20T05:25:04.069Z,22.03
2023-08-20T05:27:30.467Z,22.02
2023-08-20T05:29:56.806Z,22.02
2023-08-20T05:32:23.506Z,22.05
2023-08-20T05:34:49.842Z,22.06
2023-08-20T05:37:16.213Z,22.08
2023-08-20T05:39:44.410Z,22.11
2023-08-20T05:42:11.085Z,22.13
2023-08-20T05:44:37.602Z,22.15
2023-08-20T05:47:06.331Z,22.20
2023-08-20T05:49:33.399Z,22.25
2023-08-20T05:51:59.746Z,22.32
2023-08-20T05:54:26.181Z,22.40
2023-08-20T05:56:52.535Z,22.47
2023-08-20T05:59:18.861Z,22.55
2023-08-20T06:01:45.258Z,22.62
2023-08-20T06:04:11.653Z,22.74
2023-08-20T06:06:38.124Z,22.84
2023-08-20T06:09:08.958Z,22.91
2023-08-20T06:11:35.800Z,22.95
2023-08-20T06:14:35.039Z,22.90
2023-08-20T06:17:04.540Z,22.98
2023-08-20T06:20:01.419Z,23.13
2023-08-20T06:22:32.873Z,23.07
2023-08-20T06:25:13.781Z,23.18
2023-08-20T06:27:50.046Z,23.24
2023-08-20T06:30:27.166Z,23.30
2023-08-20T06:33:28.708Z,23.17
2023-08-20T06:36:00.121Z,23.22
2023-08-20T06:38:28.660Z,23.27
2023-08-20T06:41:09.459Z,23.47
2023-08-20T06:43:48.007Z,23.42
2023-08-20T06:46:16.983Z,23.62
2023-08-20T06:48:45.851Z,23.76
2023-08-20T06:51:32.449Z,23.81
2023-08-20T06:54:04.320Z,23.81
2023-08-20T06:56:31.099Z,24.05
2023-08-20T06:58:57.757Z,24.01
2023-08-20T07:01:30.365Z,24.23
2023-08-20T07:04:05.273Z,24.17
2023-08-20T07:06:36.767Z,24.55
2023-08-20T07:09:04.829Z,24.54
2023-08-20T07:11:36.253Z,24.64
2023-08-20T07:14:09.265Z,24.66
2023-08-20T07:16:40.988Z,24.78
2023-08-20T07:19:17.471Z,25.00
2023-08-20T07:21:43.934Z,25.07
2023-08-20T07:24:13.083Z,25.25
2023-08-20T07:26:47.397Z,25.31
2023-08-20T07:29:24.693Z,25.44
2023-08-20T07:31:59.077Z,25.51
2023-08-20T07:34:53.414Z,25.67
2023-08-20T07:37:22.561Z,25.86
2023-08-20T07:39:54.629Z,25.99
2023-08-20T07:42:30.587Z,26.50
2023-08-20T07:45:05.191Z,27.53
2023-08-20T07:47:34.457Z,28.65
2023-08-20T07:50:25.891Z,29.90
2023-08-20T07:53:33.232Z,31.12
2023-08-20T07:58:52.620Z,33.23
2023-08-20T08:01:19.217Z,33.97
2023-08-20T13:10:01.947Z,35.94
2023-08-20T13:28:23.771Z,35.88
2023-08-20T20:30:18.014Z,25.99
2023-08-20T20:38:11.555Z,25.67
2023-08-20T20:44:16.058Z,25.78
2023-08-20T20:46:42.400Z,25.76
2023-08-20T20:49:08.808Z,25.75
2023-08-20T20:51:35.367Z,25.69
2023-08-20T21:16:11.900Z,25.19
2023-08-20T21:18:40.741Z,25.15
2023-08-20T21:28:50.966Z,25.22
2023-08-20T21:32:02.292Z,25.06
2023-08-20T21:42:15.120Z,24.83
2023-08-20T21:44:43.695Z,24.77
2023-08-20T22:16:03.206Z,24.60
2023-08-20T22:41:27.186Z,24.33
2023-08-20T22:49:15.690Z,24.01
2023-08-20T23:07:55.957Z,23.93
